Nearby METAR Reports

 

LELL - Sabadell, Spain
Distance from station: O 18km
aktuell: 06/12/2021 00:00
klar
klar
 Wind von W
Wind: W 6 km/h
Temperatur: 5°C
Taupunkt: -3°C
Luftfeuchte: 57%
Luftdruck: 1013 hPa
Zusammenfassung: klar
Visibility: greater than 10 km
2021/12/05 23:00 LELL 052300Z AUTO 26003KT 210V350 CAVOK 05/M03 Q1013
LEBL - Barcelona Airpor, Spain
Distance from station: SSO 33km
aktuell: 06/12/2021 00:00
klar
klar
 Wind von NW
Wind: NW 9 km/h
Temperatur: 8°C
Wind Chill: 6°C
Taupunkt: -1°C
Luftfeuchte: 53%
Luftdruck: 1014 hPa
Zusammenfassung: klar
Visibility: greater than 10 km
2021/12/05 23:00 LEBL 052300Z 32005KT 260V360 CAVOK 08/M01 Q1014 NOSIG
LERS - Reus (civ/Mil), Spain
Distance from station: SW 75km
aktuell: 06/12/2021 00:00
klar
klar
 Wind von SSW
Wind: SSW 15 km/h
Temperatur: 8°C
Wind Chill: 5°C
Taupunkt: -1°C
Luftfeuchte: 53%
Luftdruck: 1014 hPa
Zusammenfassung: klar
Visibility: greater than 10 km
2021/12/05 23:00 LERS 052300Z AUTO 21008KT 160V260 CAVOK 08/M01 Q1014
 
LEGE - Gerona/Costa Bra, Spain
Distance from station: ONO 83km
aktuell: 06/12/2021 00:00
klar
klar
 Wind von N
Wind: N 7 km/h
Temperatur: 1°C
Wind Chill: -2°C
Taupunkt: -4°C
Luftfeuchte: 70%
Luftdruck: 1012 hPa
Zusammenfassung: klar
Visibility: greater than 10 km
2021/12/05 23:00 LEGE 052300Z 36004KT CAVOK 01/M04 Q1012
LFMP - Perpignan/Rivesa, France
Distance from station: NNO 155km
aktuell: 06/12/2021 00:00
Few Clouds
Few Clouds
 Wind von WNW
Wind: WNW 43 km/h, Windböen: 61 km/h
Temperatur: 8°C
Wind Chill: 3°C
Taupunkt: 2°C
Luftfeuchte: 66%
Luftdruck: 1012 hPa
Clouds: Few Clouds
Visibility: 10 km
Cloud details: Few Clouds 732 m
2021/12/05 23:00 LFMP 052300Z AUTO 30023G33KT 9999 FEW024 08/02 Q1012
LFMK - Carcassonne/Salv, France
Distance from station: N 191km
aktuell: 06/12/2021 00:00
sehr leichter Niederschlag, stark bewölkt
sehr leichter Niederschlag, stark bewölkt
 Wind von WNW
Wind: WNW 31 km/h, Windböen: 54 km/h
Temperatur: 5°C
Wind Chill: 0°C
Taupunkt: 4°C
Luftfeuchte: 93%
Luftdruck: 1015 hPa
Zusammenfassung: sehr leichter Niederschlag
Clouds: stark bewölkt
Visibility: 8 km
Cloud details: Few Clouds 396 m
teilweise bewölkt 610 m
stark bewölkt 823 m
2021/12/05 23:00 LFMK 052300Z AUTO 29017G29KT 8000 -RA FEW013 SCT020 BKN027 05/04 Q1015
 
LEHC - Huesca-Pirineos, Spain
Distance from station: WNW 193km
aktuell: 06/12/2021 00:00
klar
klar
 Wind von WNW
Wind: WNW 24 km/h
Temperatur: 2°C
Wind Chill: -3°C
Taupunkt: 0°C
Luftfeuchte: 87%
Luftdruck: 1017 hPa
Zusammenfassung: klar
Visibility: greater than 10 km
2021/12/05 23:00 LEHC 052300Z AUTO 29013KT 250V320 CAVOK 02/00 Q1017
LFMU - Beziers/Vias, France
Distance from station: NNO 232km
aktuell: 06/12/2021 00:00
klar
klar
 Wind von WNW
Wind: WNW 9 km/h
Temperatur: 5°C
Wind Chill: 3°C
Taupunkt: 0°C
Luftfeuchte: 70%
Luftdruck: 1012 hPa
Zusammenfassung: klar
Visibility: greater than 10 km
2021/12/05 23:00 LFMU 052300Z AUTO 29005KT CAVOK 05/M00 Q1012
LEPA - Palma De Mallorc, Spain
Distance from station: SSO 233km
aktuell: 06/12/2021 00:00
Few Clouds
Few Clouds
 Wind von NNW
Wind: NNW 35 km/h
Temperatur: 11°C
Taupunkt: 5°C
Luftfeuchte: 67%
Luftdruck: 1014 hPa
Clouds: Few Clouds
Visibility: 10 km
Cloud details: Few Clouds 914 m
2021/12/05 23:00 LEPA 052300Z 33019KT 9999 FEW030 11/05 Q1014 NOSIG
 
LFBO - Toulouse/Blagnac, France
Distance from station: N 236km
aktuell: 06/12/2021 00:00
Thunderstorm
Thunderstorm
 Wind von W
Wind: W 24 km/h
Temperatur: 6°C
Wind Chill: 2°C
Taupunkt: 4°C
Luftfeuchte: 87%
Luftdruck: 1017 hPa
Clouds: Thunderstorm
Visibility: 10 km
Cloud details: teilweise bewölkt 701 m
teilweise bewölkt 1250 m
geschlossene Wolkendecke 1890 m
2021/12/05 23:00 LFBO 052300Z AUTO 28013KT 9999 SCT023/// SCT041/// OVC062/// ///TCU 06/04 Q1017 BECMG SCT020 BKN035
LFBT - Tarbes/Ossun, France
Distance from station: NW 239km
aktuell: 06/12/2021 00:00
Thunderstorm
Thunderstorm
 Wind von W
Wind: W 19 km/h
Temperatur: 5°C
Wind Chill: 1°C
Taupunkt: 3°C
Luftfeuchte: 87%
Luftdruck: 1019 hPa
Clouds: Thunderstorm
Visibility: 10 km
Cloud details: stark bewölkt 610 m
stark bewölkt 945 m
geschlossene Wolkendecke 1494 m
2021/12/05 23:00 LFBT 052300Z AUTO 26010KT 230V290 9999 BKN020/// BKN031/// OVC049/// ///CB 05/03 Q1019 TEMPO 28015G30KT 3000 SHRA
LEZG - Zaragoza (mil/Ci, Spain
Distance from station: W 242km
aktuell: 06/12/2021 00:00
Few Clouds
Few Clouds
 Wind von WNW
Wind: WNW 31 km/h
Temperatur: 6°C
Wind Chill: 1°C
Taupunkt: 2°C
Luftfeuchte: 76%
Luftdruck: 1020 hPa
Clouds: Few Clouds
Visibility: 10 km
Cloud details: Few Clouds 1219 m
2021/12/05 23:00 LEZG 052300Z 29017KT 9999 FEW040 06/02 Q1020